KCRE

Grand Strand Airport

North Myrtle Beach, South Carolina, USA
METAR KCRE 101511Z 36007KT 3SM -RA BR BKN007 BKN012 OVC025 05/04 A3001 RMK AO1 P0000 T00500044
Observed Flight Rules
Dec-10 @ 15:11 UTC (11 minutes ago) Instrument Flight Rules
Wind Visibility Clouds Conditions
360° at 7 knots 3 miles
  • Broken at 700' AGL
  • Broken at 1,200' AGL
  • Overcast at 2,500' AGL
  • Light Rain
  • Mist
Temperatures Readings Precipitation
Current 5°C / 41°F
Dewpoint 4°C / 39°F
Humidity 93%
Altimeter 30.01" Hg
Pressure 1016 hPa
Elevation 10
Current Rain 0.005
METAR KCRE 101511Z 36007KT 3SM -RA BR BKN007 BKN012 OVC025 05/04 A3001 RMK AO1 P0000 T00500044
Observed Flight Rules
Dec-10 @ 15:11 UTC
(11 minutes ago)
IFR
Wind Visibility
360° at 7 knots 3 miles
Clouds
  • Broken at 700' AGL
  • Broken at 1,200' AGL
  • Overcast at 2,500' AGL
Conditions
  • Light Rain
  • Mist
Temperature Dewpoint
5°C / 41°F 4°C / 39°F
Humidity Altimeter Pressure
93% 30.01" Hg 1016 hPa
Current Rain
0.005